createdAt,value
2023-02-06T00:00:16.423Z,19.8
2023-02-06T00:05:14.309Z,19.8
2023-02-06T00:10:18.190Z,19.8
2023-02-06T00:15:20.172Z,19.8
2023-02-06T00:20:14.037Z,19.8
2023-02-06T00:25:23.922Z,19.8
2023-02-06T00:30:15.896Z,19.8
2023-02-06T00:35:19.807Z,19.7
2023-02-06T00:40:23.579Z,19.7
2023-02-06T00:45:14.426Z,19.7
2023-02-06T00:50:16.316Z,19.7
2023-02-06T00:55:18.153Z,19.7
2023-02-06T01:00:20.063Z,19.7
2023-02-06T01:05:21.938Z,19.7
2023-02-06T01:10:19.699Z,19.7
2023-02-06T01:15:18.615Z,19.7
2023-02-06T01:20:16.612Z,19.7
2023-02-06T01:25:14.363Z,19.7
2023-02-06T01:30:14.360Z,19.6
2023-02-06T01:35:18.325Z,19.7
2023-02-06T01:40:14.139Z,19.7
2023-02-06T01:45:17.956Z,19.6
2023-02-06T01:50:21.705Z,19.6
2023-02-06T01:55:14.535Z,19.6
2023-02-06T02:00:20.446Z,19.6
2023-02-06T02:05:16.266Z,19.6
2023-02-06T02:10:14.021Z,19.6
2023-02-06T02:15:21.914Z,19.6
2023-02-06T02:20:13.639Z,19.6
2023-02-06T02:25:14.568Z,19.6
2023-02-06T02:30:16.453Z,19.6
2023-02-06T02:35:22.212Z,19.6
2023-02-06T02:40:16.032Z,19.5
2023-02-06T02:45:13.909Z,19.5
2023-02-06T02:50:18.022Z,19.5
2023-02-06T02:55:19.899Z,19.5
2023-02-06T03:00:23.931Z,19.5
2023-02-06T03:05:15.703Z,19.5
2023-02-06T03:10:18.624Z,19.5
2023-02-06T03:15:14.460Z,19.5
2023-02-06T03:20:22.397Z,19.5
2023-02-06T03:25:26.193Z,19.5
2023-02-06T03:30:20.141Z,19.5
2023-02-06T03:35:16.021Z,19.5
2023-02-06T03:40:17.867Z,19.5
2023-02-06T03:45:13.741Z,19.5
2023-02-06T03:50:14.585Z,19.5
2023-02-06T03:55:22.642Z,19.5
2023-02-06T04:00:24.556Z,19.4
2023-02-06T04:05:14.311Z,19.4
2023-02-06T04:10:26.147Z,19.4
2023-02-06T04:15:14.548Z,19.4
2023-02-06T04:20:16.382Z,19.4
2023-02-06T04:25:14.472Z,19.4
2023-02-06T04:30:16.334Z,19.4
2023-02-06T04:35:20.452Z,19.4
2023-02-06T04:40:18.255Z,19.4
2023-02-06T04:45:16.373Z,19.4
2023-02-06T04:50:14.188Z,19.4
2023-02-06T04:55:16.125Z,19.3
2023-02-06T05:00:20.221Z,19.3
2023-02-06T05:05:15.963Z,19.3
2023-02-06T05:10:15.888Z,19.4
2023-02-06T05:15:18.178Z,19.4
2023-02-06T05:20:18.176Z,19.4
2023-02-06T05:25:18.302Z,19.5
2023-02-06T05:30:18.162Z,19.6
2023-02-06T05:35:20.138Z,19.7
2023-02-06T05:40:25.943Z,19.7
2023-02-06T05:45:15.814Z,19.7
2023-02-06T05:50:17.841Z,19.7
2023-02-06T05:55:13.936Z,19.7
2023-02-06T06:00:15.777Z,19.7
2023-02-06T06:05:16.204Z,19.7
2023-02-06T06:10:20.003Z,19.6
2023-02-06T06:15:15.776Z,19.6
2023-02-06T06:20:15.568Z,19.6
2023-02-06T06:25:14.341Z,19.7
2023-02-06T06:30:14.429Z,19.7
2023-02-06T06:35:22.322Z,19.8
2023-02-06T06:40:18.267Z,19.8
2023-02-06T06:45:20.192Z,19.7
2023-02-06T06:50:24.348Z,19.7
2023-02-06T06:55:20.195Z,19.7
2023-02-06T07:00:14.160Z,19.7
2023-02-06T07:05:15.821Z,19.7
2023-02-06T07:10:23.621Z,19.7
2023-02-06T07:15:20.742Z,19.6
2023-02-06T07:20:17.581Z,19.6
2023-02-06T07:25:16.416Z,19.6
2023-02-06T07:30:25.861Z,19.6
2023-02-06T07:35:25.713Z,19.6
2023-02-06T07:40:14.333Z,19.6
2023-02-06T07:45:18.173Z,19.6
2023-02-06T07:50:26.015Z,19.6
2023-02-06T07:55:15.929Z,19.6
2023-02-06T08:00:13.774Z,19.6
2023-02-06T08:05:25.558Z,19.5
2023-02-06T08:10:16.337Z,19.5
2023-02-06T08:15:22.353Z,19.5
2023-02-06T08:20:14.270Z,19.5
2023-02-06T08:25:20.132Z,19.5
2023-02-06T08:30:14.004Z,19.5
2023-02-06T08:35:17.972Z,19.5
2023-02-06T08:40:19.778Z,19.5
2023-02-06T08:45:23.640Z,19.5
2023-02-06T08:50:19.411Z,19.5
2023-02-06T08:55:14.108Z,19.5
2023-02-06T09:00:13.907Z,19.5
2023-02-06T09:05:14.172Z,19.5
2023-02-06T09:10:26.941Z,19.5
2023-02-06T09:15:18.175Z,19.5
2023-02-06T09:20:20.265Z,19.5
2023-02-06T09:25:16.069Z,19.5
2023-02-06T09:30:19.990Z,19.4
2023-02-06T09:35:13.817Z,19.5
2023-02-06T09:40:13.610Z,19.5
2023-02-06T09:45:14.566Z,19.5
2023-02-06T09:50:26.471Z,19.5
2023-02-06T09:55:16.366Z,19.4
2023-02-06T10:00:18.300Z,19.5
2023-02-06T10:05:13.707Z,19.5
2023-02-06T10:10:14.519Z,19.4
2023-02-06T10:15:16.428Z,19.4
2023-02-06T10:20:24.563Z,19.4
2023-02-06T10:25:18.366Z,19.4
2023-02-06T10:30:22.169Z,19.4
2023-02-06T10:35:18.074Z,19.4
2023-02-06T10:40:17.869Z,19.4
2023-02-06T10:45:36.079Z,19.4
2023-02-06T10:50:13.946Z,19.4
2023-02-06T10:55:17.809Z,19.4
2023-02-06T11:00:17.878Z,19.4
2023-02-06T11:05:16.784Z,19.4
2023-02-06T11:10:15.812Z,19.4
2023-02-06T11:15:26.697Z,19.5
2023-02-06T11:20:16.143Z,19.5
2023-02-06T11:25:17.844Z,19.5
2023-02-06T11:30:17.892Z,19.5
2023-02-06T11:35:20.784Z,19.5
2023-02-06T11:40:15.615Z,19.6
2023-02-06T11:45:20.497Z,19.6
2023-02-06T11:50:14.567Z,19.6
2023-02-06T11:55:17.695Z,19.7
2023-02-06T12:00:20.945Z,19.7
2023-02-06T12:05:22.495Z,19.7
2023-02-06T12:10:18.346Z,19.7
2023-02-06T12:16:03.675Z,19.7
2023-02-06T12:20:17.695Z,19.7
2023-02-06T12:25:18.473Z,19.7
2023-02-06T12:30:20.509Z,19.7
2023-02-06T12:35:18.321Z,19.8
2023-02-06T12:40:16.080Z,19.7
2023-02-06T12:45:18.052Z,19.7
2023-02-06T12:50:13.864Z,19.7
2023-02-06T12:55:21.763Z,19.7
2023-02-06T13:00:17.956Z,19.8
2023-02-06T13:05:17.693Z,19.8
2023-02-06T13:10:18.533Z,19.8
2023-02-06T13:15:16.348Z,19.8
2023-02-06T13:20:18.552Z,19.8
2023-02-06T13:25:14.441Z,19.8
2023-02-06T13:30:20.338Z,19.8
2023-02-06T13:35:16.230Z,19.9
2023-02-06T13:40:18.031Z,19.9
2023-02-06T13:45:19.812Z,19.9
2023-02-06T13:50:27.722Z,19.9
2023-02-06T13:55:16.655Z,19.9
2023-02-06T14:00:22.583Z,19.9
2023-02-06T14:05:15.887Z,19.9
2023-02-06T14:10:13.912Z,19.9
2023-02-06T14:15:13.755Z,19.9
2023-02-06T14:20:13.701Z,19.9
2023-02-06T14:25:18.654Z,19.9
2023-02-06T14:30:16.546Z,19.9
2023-02-06T14:35:13.597Z,19.9
2023-02-06T14:40:19.039Z,19.9
2023-02-06T14:45:21.801Z,19.9
2023-02-06T14:50:17.588Z,19.9
2023-02-06T14:55:16.492Z,19.9
2023-02-06T15:00:13.827Z,19.9
2023-02-06T15:05:20.406Z,19.9
2023-02-06T15:10:22.530Z,19.9
2023-02-06T15:15:16.642Z,19.8
2023-02-06T15:20:18.484Z,19.9
2023-02-06T15:25:18.549Z,19.8
2023-02-06T15:30:17.052Z,19.8
2023-02-06T15:35:17.805Z,19.8
2023-02-06T15:40:25.617Z,19.8
2023-02-06T15:45:15.681Z,19.8
2023-02-06T15:50:16.782Z,19.8
2023-02-06T15:55:15.594Z,19.8
2023-02-06T16:00:18.829Z,19.8
2023-02-06T16:05:14.316Z,19.8
2023-02-06T16:10:20.477Z,19.8
2023-02-06T16:15:24.905Z,19.7
2023-02-06T16:20:20.729Z,19.7
2023-02-06T16:25:18.932Z,19.7
2023-02-06T16:30:18.031Z,19.8
2023-02-06T16:35:15.757Z,19.7
2023-02-06T16:40:15.679Z,19.7
2023-02-06T16:45:28.587Z,19.7
2023-02-06T16:50:16.372Z,19.7
2023-02-06T16:55:16.285Z,19.7
2023-02-06T17:00:16.222Z,19.7
2023-02-06T17:05:27.304Z,19.7
2023-02-06T17:10:14.183Z,19.7
2023-02-06T17:15:14.118Z,19.7
2023-02-06T17:20:17.932Z,19.7
2023-02-06T17:25:13.740Z,19.7
2023-02-06T17:30:18.685Z,19.8
2023-02-06T17:35:14.515Z,19.8
2023-02-06T17:40:14.778Z,19.8
2023-02-06T17:45:13.635Z,19.8
2023-02-06T17:50:18.688Z,19.9
2023-02-06T17:55:26.607Z,19.9
2023-02-06T18:00:14.868Z,19.9
2023-02-06T18:05:13.938Z,19.9
2023-02-06T18:10:15.736Z,20
2023-02-06T18:15:16.672Z,20
2023-02-06T18:20:22.677Z,20.1
2023-02-06T18:25:16.570Z,20
2023-02-06T18:30:20.409Z,20.1
2023-02-06T18:35:18.389Z,20.1
2023-02-06T18:40:14.236Z,20
2023-02-06T18:45:19.967Z,20.1
2023-02-06T18:50:20.309Z,20
2023-02-06T18:55:22.197Z,20
2023-02-06T19:00:16.112Z,20
2023-02-06T19:05:15.552Z,20
2023-02-06T19:10:16.389Z,20
2023-02-06T19:15:14.339Z,20
2023-02-06T19:20:18.220Z,20
2023-02-06T19:25:16.016Z,20
2023-02-06T19:30:17.942Z,20
2023-02-06T19:35:13.717Z,20
2023-02-06T19:40:20.682Z,20
2023-02-06T19:45:14.488Z,20
2023-02-06T19:50:14.534Z,20
2023-02-06T19:55:16.411Z,20.1
2023-02-06T20:00:20.362Z,20.1
2023-02-06T20:05:24.763Z,20.1
2023-02-06T20:10:20.528Z,20.1
2023-02-06T20:15:14.352Z,20.1
2023-02-06T20:20:14.223Z,20.1
2023-02-06T20:25:13.953Z,20.1
2023-02-06T20:30:19.708Z,20.1
2023-02-06T20:35:16.284Z,20.1
2023-02-06T20:40:18.301Z,20
2023-02-06T20:45:16.191Z,20.1
2023-02-06T20:50:14.004Z,20.1
2023-02-06T20:55:17.763Z,20.1
2023-02-06T21:00:14.515Z,20
2023-02-06T21:05:24.558Z,20.1
2023-02-06T21:10:18.514Z,20.1
2023-02-06T21:15:16.531Z,20
2023-02-06T21:20:22.393Z,20
2023-02-06T21:25:16.214Z,20
2023-02-06T21:30:18.264Z,20
2023-02-06T21:35:18.412Z,19.9
2023-02-06T21:40:28.276Z,19.9
2023-02-06T21:45:20.342Z,19.9
2023-02-06T21:50:16.058Z,19.9
2023-02-06T21:55:15.901Z,19.9
2023-02-06T22:00:15.745Z,19.9
2023-02-06T22:05:13.730Z,19.8
2023-02-06T22:10:20.504Z,19.8
2023-02-06T22:15:18.422Z,19.8
2023-02-06T22:20:18.468Z,19.8
2023-02-06T22:25:24.236Z,19.7
2023-02-06T22:30:16.161Z,19.7
2023-02-06T22:35:14.003Z,19.7
2023-02-06T22:40:18.129Z,19.7
2023-02-06T22:45:14.061Z,19.7
2023-02-06T22:50:19.833Z,19.7
2023-02-06T22:55:17.562Z,19.7
2023-02-06T23:00:20.612Z,19.7
2023-02-06T23:05:16.490Z,19.7
2023-02-06T23:10:20.399Z,19.7
2023-02-06T23:15:16.312Z,19.6
2023-02-06T23:20:20.226Z,19.6
2023-02-06T23:25:18.023Z,19.6
2023-02-06T23:30:17.835Z,19.6
2023-02-06T23:35:15.589Z,19.6
2023-02-06T23:40:18.633Z,19.6
2023-02-06T23:45:22.547Z,19.6
2023-02-06T23:50:16.222Z,19.6
2023-02-06T23:55:16.052Z,19.6
